Terminal Aerodrome Forecast
Issued by NWS Billings, MT

Home | Current Version | Previous Version | Text Only | Print | Product List | Glossary On
Versions: 1 2 3 4 5 6 7 8 9 10 11 12 13
000
FTUS45 KBYZ 221720
TAFMLS
TAF
KMLS 221720Z 2218/2318 VRB06KT P6SM FEW250
     FM230100 32010KT P6SM SCT150
     FM230500 VRB05KT P6SM VCFG SCT005 SCT150=

USA.gov is the U.S. government's official web portal to all federal, state and local government web resources and services.